sensor_id;sensor_type;location;lat;lon;timestamp;temperature;humidity
6764;DHT22;47432;48.760;9.178;2023-03-18T00:00:06;13.40;90.60
6764;DHT22;47432;48.760;9.178;2023-03-18T00:02:35;13.30;90.30
6764;DHT22;47432;48.760;9.178;2023-03-18T00:05:02;13.30;90.80
6764;DHT22;47432;48.760;9.178;2023-03-18T00:09:53;13.20;91.90
6764;DHT22;47432;48.760;9.178;2023-03-18T00:12:19;13.20;91.80
6764;DHT22;47432;48.760;9.178;2023-03-18T00:14:45;13.10;92.10
6764;DHT22;47432;48.760;9.178;2023-03-18T00:17:11;13.10;91.90
6764;DHT22;47432;48.760;9.178;2023-03-18T00:22:03;13.00;92.10
6764;DHT22;47432;48.760;9.178;2023-03-18T00:29:22;12.70;92.30
6764;DHT22;47432;48.760;9.178;2023-03-18T00:31:49;12.70;92.90
6764;DHT22;47432;48.760;9.178;2023-03-18T00:36:43;12.50;93.20
6764;DHT22;47432;48.760;9.178;2023-03-18T00:39:15;12.40;93.10
6764;DHT22;47432;48.760;9.178;2023-03-18T00:41:43;12.40;93.20
6764;DHT22;47432;48.760;9.178;2023-03-18T00:46:38;12.40;93.20
6764;DHT22;47432;48.760;9.178;2023-03-18T00:49:06;12.30;93.50
6764;DHT22;47432;48.760;9.178;2023-03-18T00:51:34;12.40;92.80
6764;DHT22;47432;48.760;9.178;2023-03-18T00:54:03;12.30;93.00
6764;DHT22;47432;48.760;9.178;2023-03-18T00:56:31;12.30;93.60
6764;DHT22;47432;48.760;9.178;2023-03-18T00:58:58;12.30;93.60
6764;DHT22;47432;48.760;9.178;2023-03-18T01:01:26;12.30;94.10
6764;DHT22;47432;48.760;9.178;2023-03-18T01:03:52;12.30;93.40
6764;DHT22;47432;48.760;9.178;2023-03-18T01:06:22;12.30;93.60
6764;DHT22;47432;48.760;9.178;2023-03-18T01:08:48;12.30;93.60
6764;DHT22;47432;48.760;9.178;2023-03-18T01:11:14;12.30;92.80
6764;DHT22;47432;48.760;9.178;2023-03-18T01:16:07;12.30;93.30
6764;DHT22;47432;48.760;9.178;2023-03-18T01:18:33;12.30;93.00
6764;DHT22;47432;48.760;9.178;2023-03-18T01:20:59;12.30;92.90
6764;DHT22;47432;48.760;9.178;2023-03-18T01:23:26;12.40;92.90
6764;DHT22;47432;48.760;9.178;2023-03-18T01:25:52;12.40;93.00
6764;DHT22;47432;48.760;9.178;2023-03-18T01:30:44;12.40;92.00
6764;DHT22;47432;48.760;9.178;2023-03-18T01:35:36;12.40;92.70
6764;DHT22;47432;48.760;9.178;2023-03-18T01:38:05;12.40;93.00
6764;DHT22;47432;48.760;9.178;2023-03-18T01:40:33;12.40;92.50
6764;DHT22;47432;48.760;9.178;2023-03-18T01:43:27;12.40;92.50
6764;DHT22;47432;48.760;9.178;2023-03-18T01:45:58;12.50;91.90
6764;DHT22;47432;48.760;9.178;2023-03-18T01:48:29;12.50;92.00
6764;DHT22;47432;48.760;9.178;2023-03-18T01:50:59;12.50;91.70
6764;DHT22;47432;48.760;9.178;2023-03-18T01:53:30;12.90;92.10
6764;DHT22;47432;48.760;9.178;2023-03-18T01:55:57;12.60;92.20
6764;DHT22;47432;48.760;9.178;2023-03-18T01:58:31;12.60;91.80
6764;DHT22;47432;48.760;9.178;2023-03-18T02:01:02;12.70;91.60
6764;DHT22;47432;48.760;9.178;2023-03-18T02:03:29;12.70;91.90
6764;DHT22;47432;48.760;9.178;2023-03-18T02:05:55;12.70;92.10
6764;DHT22;47432;48.760;9.178;2023-03-18T02:08:24;12.80;91.50
6764;DHT22;47432;48.760;9.178;2023-03-18T02:10:50;12.80;91.40
6764;DHT22;47432;48.760;9.178;2023-03-18T02:13:17;12.80;90.90
6764;DHT22;47432;48.760;9.178;2023-03-18T02:15:50;12.80;91.20
6764;DHT22;47432;48.760;9.178;2023-03-18T02:18:33;12.80;91.40
6764;DHT22;47432;48.760;9.178;2023-03-18T02:24:28;12.80;91.10
6764;DHT22;47432;48.760;9.178;2023-03-18T02:27:00;12.80;91.30
6764;DHT22;47432;48.760;9.178;2023-03-18T02:29:28;12.80;91.50
6764;DHT22;47432;48.760;9.178;2023-03-18T02:31:56;12.80;91.50
6764;DHT22;47432;48.760;9.178;2023-03-18T02:34:23;12.80;92.20
6764;DHT22;47432;48.760;9.178;2023-03-18T02:36:52;12.70;92.20
6764;DHT22;47432;48.760;9.178;2023-03-18T02:39:20;12.50;92.10
6764;DHT22;47432;48.760;9.178;2023-03-18T02:41:46;12.40;91.90
6764;DHT22;47432;48.760;9.178;2023-03-18T02:46:57;12.50;92.40
6764;DHT22;47432;48.760;9.178;2023-03-18T02:49:24;12.40;92.30
6764;DHT22;47432;48.760;9.178;2023-03-18T02:51:52;12.30;92.40
6764;DHT22;47432;48.760;9.178;2023-03-18T02:54:24;12.30;92.40
6764;DHT22;47432;48.760;9.178;2023-03-18T02:56:51;12.30;92.80
6764;DHT22;47432;48.760;9.178;2023-03-18T02:59:18;12.20;92.80
6764;DHT22;47432;48.760;9.178;2023-03-18T03:01:47;12.30;92.80
6764;DHT22;47432;48.760;9.178;2023-03-18T03:04:15;12.30;93.00
6764;DHT22;47432;48.760;9.178;2023-03-18T03:06:42;12.30;93.00
6764;DHT22;47432;48.760;9.178;2023-03-18T03:09:11;12.30;93.20
6764;DHT22;47432;48.760;9.178;2023-03-18T03:11:38;12.30;93.40
6764;DHT22;47432;48.760;9.178;2023-03-18T03:14:04;12.30;93.60
6764;DHT22;47432;48.760;9.178;2023-03-18T03:26:15;12.10;93.50
6764;DHT22;47432;48.760;9.178;2023-03-18T03:28:41;12.10;93.50
6764;DHT22;47432;48.760;9.178;2023-03-18T03:31:07;12.00;93.20
6764;DHT22;47432;48.760;9.178;2023-03-18T03:33:39;12.00;93.30
6764;DHT22;47432;48.760;9.178;2023-03-18T03:36:08;12.00;94.20
6764;DHT22;47432;48.760;9.178;2023-03-18T03:41:00;12.00;94.70
6764;DHT22;47432;48.760;9.178;2023-03-18T03:43:29;11.90;94.30
6764;DHT22;47432;48.760;9.178;2023-03-18T03:45:54;11.80;94.00
6764;DHT22;47432;48.760;9.178;2023-03-18T03:48:20;11.70;94.40
6764;DHT22;47432;48.760;9.178;2023-03-18T03:50:45;11.70;94.10
6764;DHT22;47432;48.760;9.178;2023-03-18T03:53:12;11.70;94.40
6764;DHT22;47432;48.760;9.178;2023-03-18T03:55:37;11.70;95.20
6764;DHT22;47432;48.760;9.178;2023-03-18T03:58:03;11.70;94.80
6764;DHT22;47432;48.760;9.178;2023-03-18T04:00:29;11.60;95.10
6764;DHT22;47432;48.760;9.178;2023-03-18T04:02:55;11.60;94.70
6764;DHT22;47432;48.760;9.178;2023-03-18T04:05:22;11.60;95.40
6764;DHT22;47432;48.760;9.178;2023-03-18T04:07:49;11.50;95.20
6764;DHT22;47432;48.760;9.178;2023-03-18T04:10:17;11.50;95.40
6764;DHT22;47432;48.760;9.178;2023-03-18T04:12:45;11.50;95.60
6764;DHT22;47432;48.760;9.178;2023-03-18T04:15:13;11.50;95.40
6764;DHT22;47432;48.760;9.178;2023-03-18T04:17:40;11.50;95.70
6764;DHT22;47432;48.760;9.178;2023-03-18T04:20:06;11.40;95.40
6764;DHT22;47432;48.760;9.178;2023-03-18T04:24:58;11.30;96.20
6764;DHT22;47432;48.760;9.178;2023-03-18T04:27:24;11.30;95.70
6764;DHT22;47432;48.760;9.178;2023-03-18T04:32:17;11.10;96.70
6764;DHT22;47432;48.760;9.178;2023-03-18T04:42:02;10.90;96.90
6764;DHT22;47432;48.760;9.178;2023-03-18T04:51:46;10.60;97.60
6764;DHT22;47432;48.760;9.178;2023-03-18T04:59:05;10.40;98.10
6764;DHT22;47432;48.760;9.178;2023-03-18T05:06:29;10.30;98.10
6764;DHT22;47432;48.760;9.178;2023-03-18T05:21:07;10.20;98.60
6764;DHT22;47432;48.760;9.178;2023-03-18T05:23:34;10.10;99.20
6764;DHT22;47432;48.760;9.178;2023-03-18T05:28:26;10.00;98.70
6764;DHT22;47432;48.760;9.178;2023-03-18T05:35:46;10.00;99.10
6764;DHT22;47432;48.760;9.178;2023-03-18T05:50:32;10.20;97.80
6764;DHT22;47432;48.760;9.178;2023-03-18T05:52:59;10.20;98.70
6764;DHT22;47432;48.760;9.178;2023-03-18T05:57:52;10.30;98.60
6764;DHT22;47432;48.760;9.178;2023-03-18T06:02:47;10.30;98.90
6764;DHT22;47432;48.760;9.178;2023-03-18T06:05:13;10.30;98.80
6764;DHT22;47432;48.760;9.178;2023-03-18T06:07:39;10.30;98.60
6764;DHT22;47432;48.760;9.178;2023-03-18T06:10:06;10.30;98.60
6764;DHT22;47432;48.760;9.178;2023-03-18T06:19:51;10.30;98.50
6764;DHT22;47432;48.760;9.178;2023-03-18T06:29:38;10.30;99.60
6764;DHT22;47432;48.760;9.178;2023-03-18T06:41:53;10.60;98.40
6764;DHT22;47432;48.760;9.178;2023-03-18T06:54:03;10.80;98.50
6764;DHT22;47432;48.760;9.178;2023-03-18T06:56:30;10.80;98.40
6764;DHT22;47432;48.760;9.178;2023-03-18T06:58:58;10.80;98.10
6764;DHT22;47432;48.760;9.178;2023-03-18T07:08:43;10.90;98.20
6764;DHT22;47432;48.760;9.178;2023-03-18T07:11:14;11.00;97.90
6764;DHT22;47432;48.760;9.178;2023-03-18T07:20:59;11.20;98.30
6764;DHT22;47432;48.760;9.178;2023-03-18T07:28:17;11.30;98.80
6764;DHT22;47432;48.760;9.178;2023-03-18T07:38:05;11.60;96.50
6764;DHT22;47432;48.760;9.178;2023-03-18T08:00:04;12.50;97.00
6764;DHT22;47432;48.760;9.178;2023-03-18T08:17:09;13.20;95.10
6764;DHT22;47432;48.760;9.178;2023-03-18T08:19:34;13.20;94.70
6764;DHT22;47432;48.760;9.178;2023-03-18T08:22:00;13.30;95.40
6764;DHT22;47432;48.760;9.178;2023-03-18T08:26:55;13.60;94.40
6764;DHT22;47432;48.760;9.178;2023-03-18T08:34:13;14.00;93.20
6764;DHT22;47432;48.760;9.178;2023-03-18T08:36:40;13.30;93.20
6764;DHT22;47432;48.760;9.178;2023-03-18T08:41:34;14.20;92.80
6764;DHT22;47432;48.760;9.178;2023-03-18T08:44:01;14.30;92.60
6764;DHT22;47432;48.760;9.178;2023-03-18T08:48:53;14.50;93.10
6764;DHT22;47432;48.760;9.178;2023-03-18T08:53:47;14.80;92.50
6764;DHT22;47432;48.760;9.178;2023-03-18T09:08:28;15.30;91.00
6764;DHT22;47432;48.760;9.178;2023-03-18T09:10:56;15.40;89.40
6764;DHT22;47432;48.760;9.178;2023-03-18T09:13:22;15.40;88.80
6764;DHT22;47432;48.760;9.178;2023-03-18T09:18:15;15.50;90.00
6764;DHT22;47432;48.760;9.178;2023-03-18T09:20:43;15.50;90.20
6764;DHT22;47432;48.760;9.178;2023-03-18T09:23:16;15.60;90.90
6764;DHT22;47432;48.760;9.178;2023-03-18T09:25:44;15.70;90.20
6764;DHT22;47432;48.760;9.178;2023-03-18T09:33:03;16.00;89.10
6764;DHT22;47432;48.760;9.178;2023-03-18T09:35:31;16.00;88.70
6764;DHT22;47432;48.760;9.178;2023-03-18T09:40:27;16.10;88.30
6764;DHT22;47432;48.760;9.178;2023-03-18T09:43:04;16.20;88.50
6764;DHT22;47432;48.760;9.178;2023-03-18T09:48:42;16.20;89.40
6764;DHT22;47432;48.760;9.178;2023-03-18T09:53:57;16.50;88.60
6764;DHT22;47432;48.760;9.178;2023-03-18T09:56:27;16.70;89.00
6764;DHT22;47432;48.760;9.178;2023-03-18T10:01:26;16.60;84.90
6764;DHT22;47432;48.760;9.178;2023-03-18T10:04:03;16.70;84.70
6764;DHT22;47432;48.760;9.178;2023-03-18T10:11:49;17.00;84.20
6764;DHT22;47432;48.760;9.178;2023-03-18T10:14:41;17.20;84.40
6764;DHT22;47432;48.760;9.178;2023-03-18T10:17:18;17.30;83.00
6764;DHT22;47432;48.760;9.178;2023-03-18T10:22:40;17.40;82.10
6764;DHT22;47432;48.760;9.178;2023-03-18T10:25:24;17.50;83.00
6764;DHT22;47432;48.760;9.178;2023-03-18T10:33:01;17.70;88.20
6764;DHT22;47432;48.760;9.178;2023-03-18T10:38:04;17.90;85.80
6764;DHT22;47432;48.760;9.178;2023-03-18T10:40:38;17.90;84.30
6764;DHT22;47432;48.760;9.178;2023-03-18T10:43:20;18.00;85.50
6764;DHT22;47432;48.760;9.178;2023-03-18T10:46:02;18.00;82.10
6764;DHT22;47432;48.760;9.178;2023-03-18T10:48:32;17.90;81.70
6764;DHT22;47432;48.760;9.178;2023-03-18T10:53:51;18.00;84.00
6764;DHT22;47432;48.760;9.178;2023-03-18T11:01:14;17.80;82.20
6764;DHT22;47432;48.760;9.178;2023-03-18T11:03:48;17.90;84.00
6764;DHT22;47432;48.760;9.178;2023-03-18T11:06:25;17.90;85.10
6764;DHT22;47432;48.760;9.178;2023-03-18T11:09:10;18.00;84.30
6764;DHT22;47432;48.760;9.178;2023-03-18T11:11:42;17.90;80.10
6764;DHT22;47432;48.760;9.178;2023-03-18T11:14:14;17.80;79.60
6764;DHT22;47432;48.760;9.178;2023-03-18T11:16:56;18.00;84.10
6764;DHT22;47432;48.760;9.178;2023-03-18T11:24:45;18.40;83.70
6764;DHT22;47432;48.760;9.178;2023-03-18T11:27:26;18.40;83.00
6764;DHT22;47432;48.760;9.178;2023-03-18T11:29:58;18.40;79.90
6764;DHT22;47432;48.760;9.178;2023-03-18T11:32:29;18.40;79.20
6764;DHT22;47432;48.760;9.178;2023-03-18T11:34:57;18.50;79.80
6764;DHT22;47432;48.760;9.178;2023-03-18T11:37:38;18.50;76.00
6764;DHT22;47432;48.760;9.178;2023-03-18T11:42:43;18.40;70.90
6764;DHT22;47432;48.760;9.178;2023-03-18T11:45:29;18.40;71.70
6764;DHT22;47432;48.760;9.178;2023-03-18T11:47:56;18.50;71.50
6764;DHT22;47432;48.760;9.178;2023-03-18T11:50:24;18.60;71.10
6764;DHT22;47432;48.760;9.178;2023-03-18T11:53:09;18.50;69.30
6764;DHT22;47432;48.760;9.178;2023-03-18T11:55:51;18.40;68.20
6764;DHT22;47432;48.760;9.178;2023-03-18T11:58:46;18.20;67.80
6764;DHT22;47432;48.760;9.178;2023-03-18T12:01:34;18.20;68.60
6764;DHT22;47432;48.760;9.178;2023-03-18T12:10:23;18.40;69.30
6764;DHT22;47432;48.760;9.178;2023-03-18T12:15:39;18.60;72.40
6764;DHT22;47432;48.760;9.178;2023-03-18T12:27:02;19.30;70.10
6764;DHT22;47432;48.760;9.178;2023-03-18T12:29:41;19.40;69.20
6764;DHT22;47432;48.760;9.178;2023-03-18T12:35:09;19.50;66.50
6764;DHT22;47432;48.760;9.178;2023-03-18T12:40:35;19.30;68.60
6764;DHT22;47432;48.760;9.178;2023-03-18T12:43:27;19.40;70.60
6764;DHT22;47432;48.760;9.178;2023-03-18T12:46:03;19.70;67.20
6764;DHT22;47432;48.760;9.178;2023-03-18T12:48:37;20.00;65.60
6764;DHT22;47432;48.760;9.178;2023-03-18T12:51:11;20.10;66.90
6764;DHT22;47432;48.760;9.178;2023-03-18T12:53:48;20.30;66.00
6764;DHT22;47432;48.760;9.178;2023-03-18T12:56:28;20.60;62.70
6764;DHT22;47432;48.760;9.178;2023-03-18T12:59:18;20.80;64.70
6764;DHT22;47432;48.760;9.178;2023-03-18T13:04:35;20.90;64.00
6764;DHT22;47432;48.760;9.178;2023-03-18T13:07:13;21.10;62.70
6764;DHT22;47432;48.760;9.178;2023-03-18T13:09:46;21.30;63.40
6764;DHT22;47432;48.760;9.178;2023-03-18T13:12:29;21.50;61.00
6764;DHT22;47432;48.760;9.178;2023-03-18T13:17:51;22.00;61.40
6764;DHT22;47432;48.760;9.178;2023-03-18T13:20:22;22.70;58.90
6764;DHT22;47432;48.760;9.178;2023-03-18T13:25:47;23.00;57.70
6764;DHT22;47432;48.760;9.178;2023-03-18T13:37:06;23.50;53.70
6764;DHT22;47432;48.760;9.178;2023-03-18T13:43:17;23.00;50.90
6764;DHT22;47432;48.760;9.178;2023-03-18T13:45:48;22.30;52.00
6764;DHT22;47432;48.760;9.178;2023-03-18T13:48:19;21.90;50.50
6764;DHT22;47432;48.760;9.178;2023-03-18T13:50:48;21.70;51.50
6764;DHT22;47432;48.760;9.178;2023-03-18T13:53:28;21.70;51.60
6764;DHT22;47432;48.760;9.178;2023-03-18T13:56:00;21.60;50.90
6764;DHT22;47432;48.760;9.178;2023-03-18T13:58:43;21.50;50.80
6764;DHT22;47432;48.760;9.178;2023-03-18T14:06:21;22.40;51.10
6764;DHT22;47432;48.760;9.178;2023-03-18T14:08:52;22.80;52.50
6764;DHT22;47432;48.760;9.178;2023-03-18T14:13:56;23.30;50.30
6764;DHT22;47432;48.760;9.178;2023-03-18T14:19:24;22.90;50.90
6764;DHT22;47432;48.760;9.178;2023-03-18T14:22:32;23.20;50.20
6764;DHT22;47432;48.760;9.178;2023-03-18T14:27:58;23.10;48.50
6764;DHT22;47432;48.760;9.178;2023-03-18T14:30:46;22.50;48.50
6764;DHT22;47432;48.760;9.178;2023-03-18T14:35:57;21.60;50.00
6764;DHT22;47432;48.760;9.178;2023-03-18T14:40:57;22.00;49.20
6764;DHT22;47432;48.760;9.178;2023-03-18T14:43:37;21.70;49.20
6764;DHT22;47432;48.760;9.178;2023-03-18T14:46:07;21.80;49.90
6764;DHT22;47432;48.760;9.178;2023-03-18T14:48:39;20.10;47.20
6764;DHT22;47432;48.760;9.178;2023-03-18T14:51:15;22.20;49.50
6764;DHT22;47432;48.760;9.178;2023-03-18T14:53:51;22.20;48.60
6764;DHT22;47432;48.760;9.178;2023-03-18T14:58:46;21.50;49.10
6764;DHT22;47432;48.760;9.178;2023-03-18T15:01:12;21.30;50.20
6764;DHT22;47432;48.760;9.178;2023-03-18T15:03:43;21.40;50.30
6764;DHT22;47432;48.760;9.178;2023-03-18T15:06:17;21.60;49.70
6764;DHT22;47432;48.760;9.178;2023-03-18T15:08:49;21.40;49.00
6764;DHT22;47432;48.760;9.178;2023-03-18T15:11:17;21.20;48.80
6764;DHT22;47432;48.760;9.178;2023-03-18T15:16:13;20.50;49.60
6764;DHT22;47432;48.760;9.178;2023-03-18T15:18:42;20.50;49.90
6764;DHT22;47432;48.760;9.178;2023-03-18T15:21:15;20.10;49.00
6764;DHT22;47432;48.760;9.178;2023-03-18T15:23:50;19.80;49.40
6764;DHT22;47432;48.760;9.178;2023-03-18T15:26:36;19.60;48.90
6764;DHT22;47432;48.760;9.178;2023-03-18T15:34:27;19.50;56.50
6764;DHT22;47432;48.760;9.178;2023-03-18T15:37:00;19.50;63.20
6764;DHT22;47432;48.760;9.178;2023-03-18T15:39:37;19.40;65.60
6764;DHT22;47432;48.760;9.178;2023-03-18T15:42:14;19.70;67.70
6764;DHT22;47432;48.760;9.178;2023-03-18T15:44:41;20.20;68.00
6764;DHT22;47432;48.760;9.178;2023-03-18T15:47:23;20.80;67.00
6764;DHT22;47432;48.760;9.178;2023-03-18T15:49:53;20.80;67.80
6764;DHT22;47432;48.760;9.178;2023-03-18T15:52:25;20.80;68.70
6764;DHT22;47432;48.760;9.178;2023-03-18T15:54:52;20.70;69.00
6764;DHT22;47432;48.760;9.178;2023-03-18T15:57:33;20.70;69.10
6764;DHT22;47432;48.760;9.178;2023-03-18T16:00:00;20.80;69.80
6764;DHT22;47432;48.760;9.178;2023-03-18T16:02:26;21.50;68.60
6764;DHT22;47432;48.760;9.178;2023-03-18T16:05:04;21.50;69.00
6764;DHT22;47432;48.760;9.178;2023-03-18T16:07:32;21.80;68.50
6764;DHT22;47432;48.760;9.178;2023-03-18T16:09:59;22.10;68.50
6764;DHT22;47432;48.760;9.178;2023-03-18T16:12:27;21.70;67.80
6764;DHT22;47432;48.760;9.178;2023-03-18T16:14:54;20.80;69.50
6764;DHT22;47432;48.760;9.178;2023-03-18T16:17:19;20.40;70.80
6764;DHT22;47432;48.760;9.178;2023-03-18T16:19:46;20.10;71.60
6764;DHT22;47432;48.760;9.178;2023-03-18T16:22:12;19.90;71.90
6764;DHT22;47432;48.760;9.178;2023-03-18T16:24:39;19.90;72.50
6764;DHT22;47432;48.760;9.178;2023-03-18T16:27:35;19.60;72.90
6764;DHT22;47432;48.760;9.178;2023-03-18T16:30:04;19.60;72.80
6764;DHT22;47432;48.760;9.178;2023-03-18T16:32:31;19.30;73.70
6764;DHT22;47432;48.760;9.178;2023-03-18T16:34:59;18.80;74.50
6764;DHT22;47432;48.760;9.178;2023-03-18T16:37:26;18.80;75.30
6764;DHT22;47432;48.760;9.178;2023-03-18T16:39:52;18.60;74.90
6764;DHT22;47432;48.760;9.178;2023-03-18T16:42:23;18.50;76.80
6764;DHT22;47432;48.760;9.178;2023-03-18T16:44:51;18.40;77.50
6764;DHT22;47432;48.760;9.178;2023-03-18T16:47:22;18.40;78.10
6764;DHT22;47432;48.760;9.178;2023-03-18T16:49:49;18.20;78.40
6764;DHT22;47432;48.760;9.178;2023-03-18T16:52:15;18.00;78.80
6764;DHT22;47432;48.760;9.178;2023-03-18T16:54:42;17.70;79.40
6764;DHT22;47432;48.760;9.178;2023-03-18T16:57:17;17.50;80.60
6764;DHT22;47432;48.760;9.178;2023-03-18T16:59:51;17.30;81.20
6764;DHT22;47432;48.760;9.178;2023-03-18T17:02:31;17.10;82.10
6764;DHT22;47432;48.760;9.178;2023-03-18T17:04:59;16.90;83.40
6764;DHT22;47432;48.760;9.178;2023-03-18T17:07:26;16.80;82.90
6764;DHT22;47432;48.760;9.178;2023-03-18T17:09:53;16.60;84.00
6764;DHT22;47432;48.760;9.178;2023-03-18T17:12:19;16.50;84.70
6764;DHT22;47432;48.760;9.178;2023-03-18T17:14:51;16.40;85.60
6764;DHT22;47432;48.760;9.178;2023-03-18T17:17:31;16.30;86.20
6764;DHT22;47432;48.760;9.178;2023-03-18T17:19:58;16.30;87.10
6764;DHT22;47432;48.760;9.178;2023-03-18T17:22:25;16.20;87.40
6764;DHT22;47432;48.760;9.178;2023-03-18T17:24:52;16.10;87.90
6764;DHT22;47432;48.760;9.178;2023-03-18T17:27:25;16.00;89.10
6764;DHT22;47432;48.760;9.178;2023-03-18T17:29:52;16.00;89.60
6764;DHT22;47432;48.760;9.178;2023-03-18T17:32:18;15.80;90.20
6764;DHT22;47432;48.760;9.178;2023-03-18T17:34:48;15.70;90.90
6764;DHT22;47432;48.760;9.178;2023-03-18T17:37:17;15.70;90.40
6764;DHT22;47432;48.760;9.178;2023-03-18T17:39:42;15.70;90.80
6764;DHT22;47432;48.760;9.178;2023-03-18T17:42:26;15.70;91.10
6764;DHT22;47432;48.760;9.178;2023-03-18T17:44:53;15.60;91.90
6764;DHT22;47432;48.760;9.178;2023-03-18T17:47:19;15.50;91.90
6764;DHT22;47432;48.760;9.178;2023-03-18T17:49:45;15.40;92.40
6764;DHT22;47432;48.760;9.178;2023-03-18T17:52:16;15.30;92.80
6764;DHT22;47432;48.760;9.178;2023-03-18T17:54:43;15.20;92.80
6764;DHT22;47432;48.760;9.178;2023-03-18T17:57:13;15.10;93.40
6764;DHT22;47432;48.760;9.178;2023-03-18T17:59:40;15.00;93.50
6764;DHT22;47432;48.760;9.178;2023-03-18T18:02:14;15.00;93.80
6764;DHT22;47432;48.760;9.178;2023-03-18T18:04:42;14.90;94.30
6764;DHT22;47432;48.760;9.178;2023-03-18T18:07:19;14.90;94.50
6764;DHT22;47432;48.760;9.178;2023-03-18T18:09:46;14.70;94.70
6764;DHT22;47432;48.760;9.178;2023-03-18T18:12:22;14.70;95.10
6764;DHT22;47432;48.760;9.178;2023-03-18T18:14:48;14.60;95.50
6764;DHT22;47432;48.760;9.178;2023-03-18T18:17:15;14.50;95.70
6764;DHT22;47432;48.760;9.178;2023-03-18T18:19:42;14.50;95.80
6764;DHT22;47432;48.760;9.178;2023-03-18T18:22:20;14.40;96.30
6764;DHT22;47432;48.760;9.178;2023-03-18T18:24:47;14.40;96.60
6764;DHT22;47432;48.760;9.178;2023-03-18T18:27:14;14.40;97.00
6764;DHT22;47432;48.760;9.178;2023-03-18T18:29:41;14.30;97.00
6764;DHT22;47432;48.760;9.178;2023-03-18T18:32:15;14.20;96.90
6764;DHT22;47432;48.760;9.178;2023-03-18T18:34:41;14.20;97.10
6764;DHT22;47432;48.760;9.178;2023-03-18T18:37:06;14.10;97.30
6764;DHT22;47432;48.760;9.178;2023-03-18T18:39:32;14.00;97.50
6764;DHT22;47432;48.760;9.178;2023-03-18T18:41:58;14.00;97.80
6764;DHT22;47432;48.760;9.178;2023-03-18T18:44:23;13.90;97.90
6764;DHT22;47432;48.760;9.178;2023-03-18T18:46:49;13.80;98.10
6764;DHT22;47432;48.760;9.178;2023-03-18T18:49:18;13.90;98.30
6764;DHT22;47432;48.760;9.178;2023-03-18T18:51:54;13.80;98.40
6764;DHT22;47432;48.760;9.178;2023-03-18T18:54:20;13.70;98.60
6764;DHT22;47432;48.760;9.178;2023-03-18T18:56:46;13.70;99.20
6764;DHT22;47432;48.760;9.178;2023-03-18T18:59:26;13.60;98.90
6764;DHT22;47432;48.760;9.178;2023-03-18T19:01:55;13.50;99.20
6764;DHT22;47432;48.760;9.178;2023-03-18T19:04:21;13.40;99.50
6764;DHT22;47432;48.760;9.178;2023-03-18T19:06:47;13.40;99.70
6764;DHT22;47432;48.760;9.178;2023-03-18T19:09:23;13.30;99.80
6764;DHT22;47432;48.760;9.178;2023-03-18T19:11:50;13.20;99.90
6764;DHT22;47432;48.760;9.178;2023-03-18T19:14:27;13.10;99.90
6764;DHT22;47432;48.760;9.178;2023-03-18T19:16:55;13.10;99.90
6764;DHT22;47432;48.760;9.178;2023-03-18T19:19:31;13.10;99.90
6764;DHT22;47432;48.760;9.178;2023-03-18T19:21:57;13.10;99.90
6764;DHT22;47432;48.760;9.178;2023-03-18T19:24:32;13.10;99.90
6764;DHT22;47432;48.760;9.178;2023-03-18T19:27:00;13.10;99.90
6764;DHT22;47432;48.760;9.178;2023-03-18T19:29:30;13.00;99.90
6764;DHT22;47432;48.760;9.178;2023-03-18T19:31:59;13.00;99.90
6764;DHT22;47432;48.760;9.178;2023-03-18T19:34:28;13.00;99.90
6764;DHT22;47432;48.760;9.178;2023-03-18T19:36:56;13.00;99.90
6764;DHT22;47432;48.760;9.178;2023-03-18T19:39:22;13.00;99.90
6764;DHT22;47432;48.760;9.178;2023-03-18T19:41:49;13.00;99.90
6764;DHT22;47432;48.760;9.178;2023-03-18T19:44:23;13.00;99.90
6764;DHT22;47432;48.760;9.178;2023-03-18T19:46:51;12.90;99.90
6764;DHT22;47432;48.760;9.178;2023-03-18T19:49:22;12.90;99.90
6764;DHT22;47432;48.760;9.178;2023-03-18T19:51:49;12.90;99.90
6764;DHT22;47432;48.760;9.178;2023-03-18T19:57:00;12.80;99.90
6764;DHT22;47432;48.760;9.178;2023-03-18T19:59:28;12.80;99.90
6764;DHT22;47432;48.760;9.178;2023-03-18T20:01:56;12.80;99.90
6764;DHT22;47432;48.760;9.178;2023-03-18T20:04:27;12.80;99.90
6764;DHT22;47432;48.760;9.178;2023-03-18T20:06:56;12.70;99.90
6764;DHT22;47432;48.760;9.178;2023-03-18T20:09:22;12.80;99.90
6764;DHT22;47432;48.760;9.178;2023-03-18T20:11:50;12.80;99.90
6764;DHT22;47432;48.760;9.178;2023-03-18T20:14:25;12.80;99.90
6764;DHT22;47432;48.760;9.178;2023-03-18T20:16:52;12.80;99.90
6764;DHT22;47432;48.760;9.178;2023-03-18T20:19:19;12.80;99.90
6764;DHT22;47432;48.760;9.178;2023-03-18T20:21:45;12.70;99.90
6764;DHT22;47432;48.760;9.178;2023-03-18T20:24:14;12.70;99.90
6764;DHT22;47432;48.760;9.178;2023-03-18T20:29:18;12.70;99.90
6764;DHT22;47432;48.760;9.178;2023-03-18T20:34:14;12.70;99.90
6764;DHT22;47432;48.760;9.178;2023-03-18T20:36:40;12.60;99.90
6764;DHT22;47432;48.760;9.178;2023-03-18T20:39:15;12.70;99.90
6764;DHT22;47432;48.760;9.178;2023-03-18T20:41:43;12.60;99.90
6764;DHT22;47432;48.760;9.178;2023-03-18T20:44:10;12.60;99.90
6764;DHT22;47432;48.760;9.178;2023-03-18T20:46:36;12.70;99.90
6764;DHT22;47432;48.760;9.178;2023-03-18T20:49:02;12.60;99.90
6764;DHT22;47432;48.760;9.178;2023-03-18T20:51:33;12.60;99.90
6764;DHT22;47432;48.760;9.178;2023-03-18T20:54:17;12.60;99.90
6764;DHT22;47432;48.760;9.178;2023-03-18T20:56:47;12.60;99.90
6764;DHT22;47432;48.760;9.178;2023-03-18T20:59:16;12.60;99.90
6764;DHT22;47432;48.760;9.178;2023-03-18T21:01:43;12.60;99.90
6764;DHT22;47432;48.760;9.178;2023-03-18T21:04:11;12.50;99.90
6764;DHT22;47432;48.760;9.178;2023-03-18T21:06:37;12.50;99.90
6764;DHT22;47432;48.760;9.178;2023-03-18T21:09:05;12.50;99.90
6764;DHT22;47432;48.760;9.178;2023-03-18T21:11:34;12.50;99.90
6764;DHT22;47432;48.760;9.178;2023-03-18T21:14:00;12.40;99.90
6764;DHT22;47432;48.760;9.178;2023-03-18T21:18:55;12.50;99.90
6764;DHT22;47432;48.760;9.178;2023-03-18T21:21:30;12.50;99.90
6764;DHT22;47432;48.760;9.178;2023-03-18T21:23:57;12.50;99.90
6764;DHT22;47432;48.760;9.178;2023-03-18T21:26:23;12.50;99.90
6764;DHT22;47432;48.760;9.178;2023-03-18T21:28:49;12.50;99.90
6764;DHT22;47432;48.760;9.178;2023-03-18T21:31:28;12.40;99.90
6764;DHT22;47432;48.760;9.178;2023-03-18T21:33:58;12.40;99.90
6764;DHT22;47432;48.760;9.178;2023-03-18T21:36:24;12.40;99.90
6764;DHT22;47432;48.760;9.178;2023-03-18T21:38:50;12.30;99.90
6764;DHT22;47432;48.760;9.178;2023-03-18T21:41:21;12.30;99.90
6764;DHT22;47432;48.760;9.178;2023-03-18T21:43:49;12.30;99.90
6764;DHT22;47432;48.760;9.178;2023-03-18T21:46:20;12.20;99.90
6764;DHT22;47432;48.760;9.178;2023-03-18T21:51:26;12.30;99.90
6764;DHT22;47432;48.760;9.178;2023-03-18T21:53:53;12.30;99.90
6764;DHT22;47432;48.760;9.178;2023-03-18T21:56:19;12.30;99.90
6764;DHT22;47432;48.760;9.178;2023-03-18T21:58:47;12.30;99.90
6764;DHT22;47432;48.760;9.178;2023-03-18T22:01:22;12.30;99.90
6764;DHT22;47432;48.760;9.178;2023-03-18T22:03:48;12.20;99.90
6764;DHT22;47432;48.760;9.178;2023-03-18T22:11:18;12.10;99.90